Local Weather Ingen bokad jour idag Sunday 1st of August
Flygplats METAR TAF
Airport METAR TAF
ESSL - Linköping011120Z AUTO 27011KT 230V310 9999 BKN051/// 19/08 Q0999=NO VALID TAF PUBLISHED
ESCF - Malmen011120Z AUTO 23012KT 9999 SCT046/// BKN056/// 19/09 Q0999=NO VALID TAF PUBLISHED
ESSP - Norrköping011120Z AUTO 25011KT 210V280 9999 OVC053/// 21/10 Q0999=NO VALID TAF PUBLISHED
ESGJ - Jönköping011120Z AUTO 23013KT 9999 FEW035/// 17/10 Q1000=NO VALID TAF PUBLISHED
ESKN - Skavsta011120Z 26011KT CAVOK 20/09 Q0999=011130Z 0112/0212 25013KT 9999 SCT045 PROB40 0209/0212 SHRA BKN030CB=
ESSV - Visby011120Z 22015KT 9999 FEW033 19/11 Q1002=011130Z 0112/0120 24018KT 9999 SCT040=
ESGG - Göteborg011120Z 23017KT 9999 SCT028 16/09 Q1000=011130Z 0112/0212 22020G30KT 9999 SCT030 TEMPO 0112/0116 SCT030TCU BECMG 0115/0117 24013KT TEMPO 0121/0206 4000 SHRA BKN007 BKN020CB BECMG 0123/0201 30004KT PROB40 0206/0209 BKN012=
FLEET STATUS
Flygplan Tid till service Tid till flygstopp Flygtid Landningar
Aircraft To service To stop Total time Landings
SE-IUD-2.5 h7.5 h12 402.5 h25 402 st.
(1) 7.5 timmar till flygstopp
SE-KIT-5.0 h0.0 h12 555.0 h24 699 st.
(1) Groundad på grund av service/underhåll (tid)
SE-KMH-3.6 h1.4 h16 553.6 h61 665 st.
(1) 1.4 timmar till flygstopp
SE-LRL6.2 h11.2 h1 293.8 h2 509 st.
SE-MEB12.9 h17.9 h1 737.1 h5 316 st.
(1) Motorvibrationer under inflygning
SE-MEKN/AN/A3 757.0 h3 703 st.
(1) Båda brytkopplingarna är trasiga, byt båda två då koplingarna ofta går isär.
(2) Glappkontakt radio och interkom vänster sida.
PPR
Ankomst Avgång Flygplan Namn Bränsle
Arrival Departure Aircraft Name Fuel
1/8 09:001/7 10:00SE-MLDPatrik AxelssonInget
NOTAM
>>> ESSL/LINKOPING/SAAB <<<
+ AERODROME CONTROL TOWER (TWR) HOURS OF SERVICE ARE NOW MON 0400-1630 TUE 0400-1630 WED 0400-1630 THU 0400-1630 FRI 0400-1630 SAT 0400-0500, 1500-1630 SUN 0400-0500, 1500-1630. FROM: 02 AUG 2021 00:00 TO: 08 AUG 2021 23:59
+ AERODROME CONTROL TOWER (TWR) HOURS OF SERVICE ARE NOW MON-SAT CLSD, SUN 1500-1630 FROM: 26 JUL 2021 00:00 TO: 01 AUG 2021 23:59
+ RWY 11/29 CLSD DUE WIP FROM: 10 JUL 2021 05:00 TO: 01 AUG 2021 15:00
+ INFORMATION REGARDING PPR HOSP AND SAR FLIGHTS OUTSIDE HR OF AD ADMINISTRATION CONTACT JRCC FROM: 25 MAY 2021 10:09 TO: 25 AUG 2021 12:00 EST
+ IFR TRAINING AND SCHOOL FLIGHTS REQUIRE PPR FROM ATS FOR APCHS AND TGL. ATS TEL +46 (0)60646213 FROM: 25 MAY 2021 10:11 TO: 25 AUG 2021 12:00 EST
+ AERODROME CAUTION WORK IN PROGRESS S OF RWY 11/29 W OF TWY I AND N OF RWY11/29 E OF TWY L. TRAFFIC NOT AFFECTED. FROM: 25 MAY 2021 10:12 TO: 25 AUG 2021 12:00 EST
+ WIP CENTRELINE RWY 29 150M EAST OF THR. FROM: 06 MAY 2021 05:15 TO: 06 AUG 2021 10:00 EST
>>> ESSP/NORRKOPING/KUNGSANGEN <<<
+ AERODROME CONTROL TOWER (TWR) HOURS OF SERVICE ARE NOW MON-THU 0530-1430, FRI 0530-1330, SAT-SUN CLSD. FROM: 02 AUG 2021 00:00 TO: 08 AUG 2021 23:59
+ FUEL AVAILABILITY HOURS OF SERVICE ARE NOW MON-THU 0530-1330, FRI 0530-1230, SAT-SUN CLSD. FROM: 02 AUG 2021 00:00 TO: 08 AUG 2021 23:59
+ AERODROME CONTROL TOWER (TWR) HOURS OF SERVICE ARE NOW MON-THU 0530-1430, FRI 0530-1330, SAT-SUN CLSD FROM: 12 JUL 2021 00:00 TO: 01 AUG 2021 23:59
+ FUEL AVAILABILITY HOURS OF SERVICE ARE NOW MON-THU 0530-1330, FRI 0530-1230, SAT-SUN CLSD FROM: 12 JUL 2021 00:00 TO: 01 AUG 2021 23:59
+ CRANE ERECTED IN APCH RWY 27 PSN 583732N 0163428E HGT 187FT AGL ELEV 210FT AMSL. OCA/OCH NOT AFFECTED FROM: 28 MAY 2021 04:00 TO: 25 SEP 2021 12:00
>>> ESCF/LINKOPING/MALMEN <<<
+ AERODROME CONTROL TOWER (TWR) CLSD FROM: 05 JUL 2021 00:00 TO: 01 AUG 2021 23:59
+ RWY 08/26 SLIPPERY WHEN WET FROM: 05 JUL 2021 07:55 TO: 31 AUG 2021 12:00 EST